This is the latest recevied weather packets stored in our database for station/object WD4IXD-WX. If no packets are shown the sender has not sent any weather packets the latest 10 day(s).
| Time | Temp. | Humidity | Pressure | Rain* | Wind** | Luminosity | Snow |
|---|---|---|---|---|---|---|---|
| 1777571104 | -2.22° C | 86% | 1019.5 hPa | 1.02 mm | - | 53 W/m² | - |
| 1777570803 | -1.67° C | 85% | 1019.5 hPa | 1.02 mm | - | 30 W/m² | - |
| 1777570504 | 0° C | 80% | 1019.3 hPa | 1.02 mm | - | 56 W/m² | - |
| 1777570204 | 0.56° C | 82% | 1019.2 hPa | 1.02 mm | - | 192 W/m² | - |
| 1777569904 | 0.56° C | 82% | 1019.2 hPa | 1.02 mm | - | 346 W/m² | - |
| 1777569604 | 0.56° C | 85% | 1019.2 hPa | 1.02 mm | - | 1071 W/m² | - |
| 1777569304 | 0.56° C | 85% | 1019.2 hPa | 0.76 mm | - | 1053 W/m² | - |
| 1777569004 | 0.56° C | 88% | 1019.2 hPa | 0.76 mm | - | 471 W/m² | - |
| 1777568703 | 0° C | 89% | 1019.2 hPa | 0.51 mm | - | 1051 W/m² | - |
| 1777568404 | 0° C | 89% | 1019.3 hPa | 0.51 mm | - | 364 W/m² | - |
| 1777568103 | -0.56° C | 90% | 1019.3 hPa | 0.25 mm | - | 490 W/m² | - |
| 1777567804 | -1.11° C | 90% | 1019.3 hPa | 0.25 mm | - | 490 W/m² | - |
| 1777567503 | -1.11° C | 90% | 1019.3 hPa | 0 mm | - | 253 W/m² | - |
| 1777567204 | -1.11° C | 90% | 1019.3 hPa | 0 mm | - | 353 W/m² | - |
| 1777566904 | -1.11° C | 90% | 1019.3 hPa | 0 mm | - | 227 W/m² | - |
| 1777566604 | -1.11° C | 91% | 1019.3 hPa | 0 mm | - | 257 W/m² | - |
| 1777566304 | -1.11° C | 90% | 1019.3 hPa | 0 mm | - | 234 W/m² | - |
| 1777566004 | -1.11° C | 91% | 1019.3 hPa | 0 mm | - | 279 W/m² | - |
| 1777565704 | -1.11° C | 91% | 1019.3 hPa | 0 mm | - | 297 W/m² | - |
| 1777565404 | -1.11° C | 91% | 1019.3 hPa | 0 mm | - | 141 W/m² | - |
| 1777565104 | -1.67° C | 91% | 1019.4 hPa | 0 mm | - | 162 W/m² | - |
| 1777564803 | -1.67° C | 91% | 1019.3 hPa | 0 mm | - | 74 W/m² | - |
| 1777564504 | -1.67° C | 91% | 1019.3 hPa | 0 mm | - | 116 W/m² | - |
| 1777564204 | -1.67° C | 91% | 1019.3 hPa | 0 mm | - | 121 W/m² | - |
| 1777563904 | -2.22° C | 91% | 1019.4 hPa | 0 mm | - | 77 W/m² | - |
* Rain latest hour (hover to see other rain measurements)
** Current wind speed in m/s (hover to see current wind gust speed)